createdAt,value
2023-04-14T00:02:07.301Z,100.00
2023-04-14T00:04:34.255Z,100.00
2023-04-14T00:07:01.228Z,100.00
2023-04-14T00:09:27.792Z,100.00
2023-04-14T00:11:54.471Z,100.00
2023-04-14T00:14:21.277Z,100.00
2023-04-14T00:16:48.101Z,100.00
2023-04-14T00:19:14.736Z,100.00
2023-04-14T00:21:41.501Z,100.00
2023-04-14T00:24:08.150Z,100.00
2023-04-14T00:26:34.775Z,100.00
2023-04-14T00:29:02.257Z,100.00
2023-04-14T00:31:29.263Z,100.00
2023-04-14T00:33:56.097Z,100.00
2023-04-14T00:36:23.025Z,100.00
2023-04-14T00:38:49.791Z,100.00
2023-04-14T00:41:16.460Z,100.00
2023-04-14T00:43:43.014Z,100.00
2023-04-14T00:46:09.851Z,100.00
2023-04-14T00:48:36.734Z,100.00
2023-04-14T00:51:04.187Z,100.00
2023-04-14T00:53:31.958Z,100.00
2023-04-14T00:55:59.159Z,100.00
2023-04-14T00:58:26.291Z,100.00
2023-04-14T01:00:55.759Z,100.00
2023-04-14T01:03:24.577Z,100.00
2023-04-14T01:05:51.659Z,100.00
2023-04-14T01:08:19.775Z,100.00
2023-04-14T01:11:02.346Z,100.00
2023-04-14T01:13:55.541Z,100.00
2023-04-14T01:16:30.334Z,100.00
2023-04-14T01:19:15.489Z,100.00
2023-04-14T01:21:47.195Z,100.00
2023-04-14T01:24:16.421Z,100.00
2023-04-14T01:26:45.385Z,100.00
2023-04-14T01:29:40.426Z,100.00
2023-04-14T01:32:10.570Z,100.00
2023-04-14T01:34:57.444Z,100.00
2023-04-14T01:37:37.711Z,100.00
2023-04-14T01:40:12.575Z,100.00
2023-04-14T01:42:44.940Z,100.00
2023-04-14T01:45:25.343Z,100.00
2023-04-14T01:47:53.437Z,100.00
2023-04-14T01:50:22.183Z,100.00
2023-04-14T01:52:54.096Z,100.00
2023-04-14T01:55:23.059Z,100.00
2023-04-14T01:57:52.357Z,100.00
2023-04-14T02:00:20.747Z,100.00
2023-04-14T02:02:52.244Z,100.00
2023-04-14T02:05:21.188Z,100.00
2023-04-14T02:07:49.513Z,100.00
2023-04-14T02:10:20.594Z,100.00
2023-04-14T02:12:48.386Z,100.00
2023-04-14T02:15:18.635Z,100.00
2023-04-14T02:17:48.466Z,100.00
2023-04-14T02:20:16.096Z,100.00
2023-04-14T02:22:42.966Z,100.00
2023-04-14T02:25:10.174Z,100.00
2023-04-14T02:27:41.430Z,100.00
2023-04-14T02:30:14.550Z,100.00
2023-04-14T02:32:51.289Z,100.00
2023-04-14T02:35:26.779Z,100.00
2023-04-14T02:38:07.163Z,100.00
2023-04-14T02:40:38.722Z,100.00
2023-04-14T02:43:13.752Z,100.00
2023-04-14T02:45:46.924Z,100.00
2023-04-14T02:48:16.276Z,100.00
2023-04-14T02:50:47.720Z,100.00
2023-04-14T02:53:23.796Z,100.00
2023-04-14T02:55:59.364Z,100.00
2023-04-14T02:58:29.951Z,100.00
2023-04-14T03:00:58.162Z,100.00
2023-04-14T03:03:26.631Z,100.00
2023-04-14T03:05:53.969Z,100.00
2023-04-14T03:08:20.910Z,100.00
2023-04-14T03:10:51.674Z,100.00
2023-04-14T03:13:23.793Z,100.00
2023-04-14T03:15:51.891Z,100.00
2023-04-14T03:18:19.087Z,100.00
2023-04-14T03:20:47.163Z,100.00
2023-04-14T03:23:18.874Z,100.00
2023-04-14T03:25:53.178Z,100.00
2023-04-14T03:28:28.459Z,100.00
2023-04-14T03:30:57.910Z,100.00
2023-04-14T03:33:29.077Z,100.00
2023-04-14T03:35:58.598Z,100.00
2023-04-14T03:38:28.103Z,100.00
2023-04-14T03:40:59.924Z,100.00
2023-04-14T03:43:28.633Z,100.00
2023-04-14T03:46:05.142Z,100.00
2023-04-14T03:48:34.482Z,100.00
2023-04-14T03:51:04.071Z,100.00
2023-04-14T03:53:34.727Z,100.00
2023-04-14T03:56:04.788Z,100.00
2023-04-14T03:58:33.153Z,100.00
2023-04-14T04:01:02.062Z,100.00
2023-04-14T04:03:29.946Z,100.00
2023-04-14T04:05:58.962Z,100.00
2023-04-14T04:08:27.665Z,100.00
2023-04-14T04:10:57.456Z,100.00
2023-04-14T04:13:25.677Z,100.00
2023-04-14T04:15:52.741Z,100.00
2023-04-14T04:18:22.794Z,100.00
2023-04-14T04:20:50.156Z,100.00
2023-04-14T04:23:19.597Z,100.00
2023-04-14T04:25:47.211Z,100.00
2023-04-14T04:28:24.830Z,100.00
2023-04-14T04:30:53.987Z,100.00
2023-04-14T04:33:22.667Z,100.00
2023-04-14T04:35:52.533Z,100.00
2023-04-14T04:38:20.557Z,100.00
2023-04-14T04:40:47.397Z,100.00
2023-04-14T04:43:19.864Z,100.00
2023-04-14T04:46:08.792Z,100.00
2023-04-14T04:48:36.216Z,100.00
2023-04-14T04:51:05.424Z,100.00
2023-04-14T04:53:32.057Z,100.00
2023-04-14T04:55:58.578Z,100.00
2023-04-14T04:58:25.178Z,100.00
2023-04-14T05:00:51.997Z,100.00
2023-04-14T05:03:18.674Z,100.00
2023-04-14T05:05:45.391Z,100.00
2023-04-14T05:08:14.419Z,100.00
2023-04-14T05:10:41.754Z,100.00
2023-04-14T05:13:08.362Z,100.00
2023-04-14T05:15:34.928Z,100.00
2023-04-14T05:18:01.832Z,100.00
2023-04-14T05:20:29.241Z,100.00
2023-04-14T05:22:56.254Z,100.00
2023-04-14T05:25:22.908Z,100.00
2023-04-14T05:27:49.546Z,100.00
2023-04-14T05:30:16.446Z,100.00
2023-04-14T05:32:43.856Z,100.00
2023-04-14T05:35:10.567Z,100.00
2023-04-14T05:37:37.133Z,100.00
2023-04-14T05:40:04.263Z,100.00
2023-04-14T05:42:30.993Z,100.00
2023-04-14T05:44:57.658Z,100.00
2023-04-14T05:47:25.342Z,100.00
2023-04-14T05:49:51.997Z,100.00
2023-04-14T05:52:18.610Z,100.00
2023-04-14T05:54:45.372Z,100.00
2023-04-14T05:57:12.089Z,100.00
2023-04-14T05:59:38.740Z,100.00
2023-04-14T06:02:07.394Z,100.00
2023-04-14T06:04:34.354Z,100.00
2023-04-14T06:07:02.691Z,100.00
2023-04-14T06:09:29.429Z,100.00
2023-04-14T06:11:56.628Z,100.00
2023-04-14T06:14:23.513Z,100.00
2023-04-14T06:16:51.100Z,100.00
2023-04-14T06:19:18.715Z,100.00
2023-04-14T06:21:47.089Z,100.00
2023-04-14T06:24:13.751Z,100.00
2023-04-14T06:26:40.496Z,100.00
2023-04-14T06:29:07.847Z,100.00
2023-04-14T06:31:34.917Z,100.00
2023-04-14T06:34:01.721Z,100.00
2023-04-14T06:36:28.749Z,100.00
2023-04-14T06:38:56.832Z,100.00
2023-04-14T06:41:23.495Z,100.00
2023-04-14T06:43:50.371Z,100.00
2023-04-14T06:46:17.452Z,100.00
2023-04-14T06:48:44.129Z,100.00
2023-04-14T06:51:12.353Z,100.00
2023-04-14T06:53:39.164Z,100.00
2023-04-14T06:56:07.350Z,100.00
2023-04-14T06:58:34.118Z,100.00
2023-04-14T07:01:03.085Z,100.00
2023-04-14T07:03:31.283Z,100.00
2023-04-14T07:06:06.802Z,100.00
2023-04-14T07:08:35.006Z,100.00
2023-04-14T07:11:04.813Z,100.00
2023-04-14T07:13:32.061Z,100.00
2023-04-14T07:16:02.774Z,100.00
2023-04-14T07:18:31.644Z,100.00
2023-04-14T07:20:59.766Z,100.00
2023-04-14T07:23:27.319Z,100.00
2023-04-14T07:25:57.098Z,99.50
2023-04-14T07:28:24.973Z,92.42
2023-04-14T07:30:52.684Z,91.70
2023-04-14T07:33:20.217Z,96.52
2023-04-14T07:36:00.555Z,91.80
2023-04-14T07:38:28.427Z,88.62
2023-04-14T07:40:55.476Z,80.87
2023-04-14T07:43:23.892Z,82.09
2023-04-14T07:45:52.132Z,82.21
2023-04-14T07:48:21.242Z,76.22
2023-04-14T07:50:49.775Z,80.18
2023-04-14T07:53:17.418Z,83.58
2023-04-14T07:55:44.118Z,80.10
2023-04-14T07:58:15.413Z,75.54
2023-04-14T08:00:42.911Z,72.01
2023-04-14T08:03:10.001Z,68.31
2023-04-14T08:05:36.993Z,70.89
2023-04-14T08:08:03.631Z,70.29
2023-04-14T08:10:30.280Z,67.95
2023-04-14T08:12:56.926Z,72.03
2023-04-14T08:15:23.526Z,68.47
2023-04-14T08:17:50.990Z,64.03
2023-04-14T08:20:18.088Z,65.66
2023-04-14T08:22:44.586Z,63.17
2023-04-14T08:25:12.134Z,62.51
2023-04-14T08:27:39.235Z,60.69
2023-04-14T08:30:07.574Z,57.25
2023-04-14T08:32:35.134Z,55.87
2023-04-14T08:35:39.472Z,58.51
2023-04-14T08:37:49.090Z,53.46
2023-04-14T08:40:16.211Z,54.82
2023-04-14T08:42:42.897Z,54.24
2023-04-14T08:45:09.743Z,55.49
2023-04-14T08:47:39.649Z,52.67
2023-04-14T08:50:12.772Z,51.84
2023-04-14T08:52:41.598Z,51.73
2023-04-14T08:55:11.034Z,52.41
2023-04-14T08:57:38.501Z,51.50
2023-04-14T09:00:06.287Z,50.62
2023-04-14T09:02:33.649Z,49.31
2023-04-14T09:05:01.194Z,48.77
2023-04-14T09:07:29.945Z,49.93
2023-04-14T09:09:57.717Z,49.49
2023-04-14T09:12:27.218Z,47.45
2023-04-14T09:14:57.113Z,45.86
2023-04-14T09:17:26.507Z,47.46
2023-04-14T09:20:38.105Z,43.02
2023-04-14T09:22:40.016Z,42.55
2023-04-14T09:25:08.025Z,43.78
2023-04-14T09:27:34.964Z,44.47
2023-04-14T09:30:02.480Z,44.03
2023-04-14T09:32:29.504Z,42.90
2023-04-14T09:34:57.807Z,41.04
2023-04-14T09:37:26.153Z,40.01
2023-04-14T09:39:55.434Z,40.16
2023-04-14T09:42:38.307Z,40.84
2023-04-14T09:45:05.850Z,40.16
2023-04-14T09:47:33.537Z,39.50
2023-04-14T09:50:03.199Z,37.66
2023-04-14T09:52:38.113Z,38.59
2023-04-14T09:55:08.142Z,39.34
2023-04-14T09:57:37.266Z,37.65
2023-04-14T10:00:22.477Z,36.49
2023-04-14T10:02:50.031Z,37.09
2023-04-14T10:05:20.003Z,36.86
2023-04-14T10:07:51.340Z,36.34
2023-04-14T10:10:23.596Z,35.33
2023-04-14T10:12:53.125Z,35.81
2023-04-14T10:15:19.823Z,36.34
2023-04-14T10:17:47.247Z,35.13
2023-04-14T10:20:15.970Z,35.92
2023-04-14T10:22:43.085Z,35.40
2023-04-14T10:25:10.682Z,35.78
2023-04-14T10:27:38.344Z,34.61
2023-04-14T10:30:06.645Z,35.38
2023-04-14T10:32:36.716Z,36.41
2023-04-14T10:35:10.057Z,35.29
2023-04-14T10:37:37.083Z,35.25
2023-04-14T10:40:07.248Z,33.33
2023-04-14T10:43:11.617Z,33.88
2023-04-14T10:45:54.853Z,35.82
2023-04-14T10:48:34.867Z,33.61
2023-04-14T10:51:09.857Z,34.33
2023-04-14T10:53:37.869Z,34.27
2023-04-14T10:56:06.140Z,33.59
2023-04-14T10:58:35.481Z,32.01
2023-04-14T11:01:31.135Z,33.12
2023-04-14T11:04:10.804Z,31.90
2023-04-14T11:06:58.826Z,30.77
2023-04-14T11:09:34.068Z,29.79
2023-04-14T11:12:24.467Z,29.51
2023-04-14T11:14:55.643Z,29.66
2023-04-14T11:17:23.131Z,30.45
2023-04-14T11:19:54.349Z,29.86
2023-04-14T11:22:38.999Z,29.04
2023-04-14T11:25:06.902Z,30.24
2023-04-14T11:27:34.538Z,30.54
2023-04-14T11:30:01.727Z,30.42
2023-04-14T11:32:28.529Z,31.24
2023-04-14T11:34:55.314Z,32.17
2023-04-14T11:37:22.857Z,32.98
2023-04-14T11:39:50.254Z,31.88
2023-04-14T11:42:17.010Z,30.33
2023-04-14T11:44:43.711Z,29.94
2023-04-14T11:47:10.661Z,30.10
2023-04-14T11:49:37.674Z,30.37
2023-04-14T11:52:08.096Z,31.89
2023-04-14T11:54:37.089Z,30.95
2023-04-14T11:57:09.925Z,32.04
2023-04-14T11:59:44.245Z,31.25
2023-04-14T12:02:19.289Z,29.67
2023-04-14T12:04:49.267Z,28.88
2023-04-14T12:07:18.652Z,29.70
2023-04-14T12:09:48.764Z,31.21
2023-04-14T12:12:17.838Z,31.71
2023-04-14T12:14:49.664Z,31.09
2023-04-14T12:17:21.523Z,29.41
2023-04-14T12:19:48.975Z,29.07
2023-04-14T12:22:27.344Z,28.42
2023-04-14T12:24:55.337Z,28.62
2023-04-14T12:27:24.638Z,30.12
2023-04-14T12:29:52.209Z,32.16
2023-04-14T12:32:18.932Z,33.21
2023-04-14T12:34:58.488Z,30.93
2023-04-14T12:37:27.739Z,30.68
2023-04-14T12:40:00.141Z,31.96
2023-04-14T12:42:27.819Z,31.64
2023-04-14T12:44:59.018Z,31.95
2023-04-14T12:47:34.352Z,29.98
2023-04-14T12:50:23.985Z,31.54
2023-04-14T12:52:52.451Z,31.47
2023-04-14T12:55:24.545Z,30.48
2023-04-14T12:57:53.097Z,28.68
2023-04-14T13:00:23.868Z,28.13
2023-04-14T13:02:51.311Z,29.79
2023-04-14T13:05:18.225Z,31.97
2023-04-14T13:07:46.311Z,32.58
2023-04-14T13:10:13.555Z,32.46
2023-04-14T13:12:40.354Z,32.06
2023-04-14T13:15:07.598Z,31.05
2023-04-14T13:17:34.789Z,31.17
2023-04-14T13:20:01.642Z,31.86
2023-04-14T13:22:28.394Z,32.72
2023-04-14T13:24:58.242Z,32.88
2023-04-14T13:27:24.948Z,31.69
2023-04-14T13:29:51.545Z,28.50
2023-04-14T13:32:18.476Z,27.10
2023-04-14T13:34:46.317Z,28.24
2023-04-14T13:37:13.107Z,28.72
2023-04-14T13:39:39.778Z,28.74
2023-04-14T13:42:06.355Z,29.81
2023-04-14T13:44:35.199Z,29.23
2023-04-14T13:47:02.716Z,28.81
2023-04-14T13:49:30.206Z,27.19
2023-04-14T13:51:56.823Z,26.11
2023-04-14T13:54:23.491Z,26.68
2023-04-14T13:56:50.188Z,25.93
2023-04-14T13:59:17.243Z,25.81
2023-04-14T14:01:44.072Z,26.96
2023-04-14T14:04:10.993Z,25.89
2023-04-14T14:06:37.743Z,25.44
2023-04-14T14:12:52.260Z,25.60
2023-04-14T14:15:22.480Z,25.17
2023-04-14T14:17:49.386Z,25.27
2023-04-14T14:23:26.210Z,24.72
2023-04-14T14:25:55.645Z,25.17
2023-04-14T14:28:22.502Z,25.95
2023-04-14T14:30:52.163Z,25.50
2023-04-14T14:33:18.765Z,24.98
2023-04-14T14:35:46.886Z,24.74
2023-04-14T14:38:14.894Z,25.14
2023-04-14T14:40:41.523Z,24.94
2023-04-14T14:43:08.143Z,24.41
2023-04-14T14:45:34.745Z,25.08
2023-04-14T14:48:01.795Z,24.99
2023-04-14T14:50:28.494Z,24.97
2023-04-14T14:52:56.792Z,25.43
2023-04-14T14:55:23.455Z,24.67
2023-04-14T14:57:51.203Z,24.65
2023-04-14T15:00:18.438Z,25.45
2023-04-14T15:02:45.515Z,25.76
2023-04-14T15:05:12.616Z,24.04
2023-04-14T15:07:39.696Z,25.24
2023-04-14T15:10:07.213Z,24.68
2023-04-14T15:12:33.976Z,25.68
2023-04-14T15:15:00.488Z,24.61
2023-04-14T15:17:27.279Z,27.20
2023-04-14T15:19:53.917Z,29.17
2023-04-14T15:22:21.148Z,27.66
2023-04-14T15:24:47.804Z,26.42
2023-04-14T15:27:14.401Z,25.65
2023-04-14T15:29:41.023Z,25.24
2023-04-14T15:32:07.633Z,25.13
2023-04-14T15:34:34.214Z,24.99
2023-04-14T15:37:01.522Z,25.08
2023-04-14T15:39:28.753Z,24.12
2023-04-14T15:41:55.726Z,26.60
2023-04-14T15:44:22.491Z,27.67
2023-04-14T15:46:49.720Z,29.08
2023-04-14T15:49:16.335Z,30.67
2023-04-14T15:51:43.057Z,32.38
2023-04-14T15:54:09.553Z,33.50
2023-04-14T15:56:36.219Z,32.90
2023-04-14T15:59:02.866Z,32.71
2023-04-14T16:01:29.620Z,30.31
2023-04-14T16:03:56.573Z,30.37
2023-04-14T16:06:23.448Z,30.80
2023-04-14T16:08:50.082Z,29.84
2023-04-14T16:11:16.795Z,28.33
2023-04-14T16:13:46.366Z,27.89
2023-04-14T16:16:14.345Z,27.20
2023-04-14T16:18:41.550Z,27.28
2023-04-14T16:21:08.461Z,29.74
2023-04-14T16:23:34.997Z,31.60
2023-04-14T16:26:01.702Z,32.69
2023-04-14T16:28:28.539Z,34.01
2023-04-14T16:30:58.396Z,35.21
2023-04-14T16:33:25.547Z,35.60
2023-04-14T16:35:52.201Z,36.57
2023-04-14T16:38:18.945Z,36.56
2023-04-14T16:40:55.324Z,35.22
2023-04-14T16:43:22.107Z,33.28
2023-04-14T16:45:48.663Z,32.65
2023-04-14T16:48:16.299Z,33.57
2023-04-14T16:50:46.926Z,34.21
2023-04-14T16:53:13.952Z,33.61
2023-04-14T16:55:40.519Z,33.91
2023-04-14T16:58:08.422Z,33.65
2023-04-14T17:00:35.534Z,34.34
2023-04-14T17:03:02.250Z,35.04
2023-04-14T17:05:29.001Z,35.97
2023-04-14T17:07:55.566Z,36.47
2023-04-14T17:10:22.339Z,36.43
2023-04-14T17:12:49.099Z,37.07
2023-04-14T17:15:15.906Z,37.04
2023-04-14T17:17:43.297Z,36.98
2023-04-14T17:20:10.506Z,36.91
2023-04-14T17:22:37.803Z,36.46
2023-04-14T17:25:05.381Z,36.30
2023-04-14T17:27:31.961Z,37.02
2023-04-14T17:29:58.929Z,36.12
2023-04-14T17:32:26.475Z,35.31
2023-04-14T17:34:55.972Z,36.14
2023-04-14T17:37:22.605Z,36.82
2023-04-14T17:39:49.624Z,37.88
2023-04-14T17:42:16.206Z,38.56
2023-04-14T17:44:42.798Z,39.10
2023-04-14T17:47:15.654Z,39.38
2023-04-14T17:49:43.045Z,39.95
2023-04-14T17:52:17.803Z,40.61
2023-04-14T17:54:45.814Z,41.17
2023-04-14T17:57:13.285Z,41.57
2023-04-14T17:59:41.550Z,41.99
2023-04-14T18:02:08.999Z,42.36
2023-04-14T18:04:36.121Z,43.10
2023-04-14T18:07:02.905Z,43.59
2023-04-14T18:09:29.483Z,43.67
2023-04-14T18:11:56.165Z,45.60
2023-04-14T18:14:22.679Z,46.49
2023-04-14T18:16:49.293Z,46.83
2023-04-14T18:19:15.904Z,47.42
2023-04-14T18:21:44.853Z,48.26
2023-04-14T18:26:42.300Z,50.86
2023-04-14T18:29:08.861Z,51.52
2023-04-14T18:31:35.440Z,52.28
2023-04-14T18:34:04.102Z,53.55
2023-04-14T18:36:32.500Z,53.29
2023-04-14T18:39:00.410Z,52.39
2023-04-14T18:41:27.996Z,51.51
2023-04-14T18:43:54.555Z,51.36
2023-04-14T18:46:21.538Z,51.17
2023-04-14T18:48:48.457Z,51.55
2023-04-14T18:51:16.050Z,50.57
2023-04-14T18:53:44.657Z,50.80
2023-04-14T18:56:11.270Z,51.29
2023-04-14T18:58:38.188Z,51.68
2023-04-14T19:01:04.774Z,52.53
2023-04-14T19:03:31.923Z,53.46
2023-04-14T19:05:58.944Z,55.75
2023-04-14T19:08:25.891Z,58.47
2023-04-14T19:10:52.463Z,61.76
2023-04-14T19:13:19.646Z,66.57
2023-04-14T19:15:46.579Z,69.17
2023-04-14T19:18:13.269Z,72.89
2023-04-14T19:20:39.802Z,74.61
2023-04-14T19:23:06.376Z,75.49
2023-04-14T19:25:35.048Z,71.95
2023-04-14T19:28:02.249Z,69.27
2023-04-14T19:30:29.250Z,68.05
2023-04-14T19:32:55.940Z,66.82
2023-04-14T19:35:23.475Z,66.25
2023-04-14T19:37:50.606Z,67.49
2023-04-14T19:40:17.223Z,69.12
2023-04-14T19:42:43.847Z,69.41
2023-04-14T19:45:10.638Z,69.49
2023-04-14T19:47:37.758Z,70.46
2023-04-14T19:50:04.598Z,71.32
2023-04-14T19:52:31.140Z,72.39
2023-04-14T19:54:58.193Z,74.15
2023-04-14T19:57:24.927Z,74.35
2023-04-14T19:59:51.480Z,75.40
2023-04-14T20:02:18.883Z,77.58
2023-04-14T20:04:46.792Z,79.50
2023-04-14T20:07:13.536Z,79.22
2023-04-14T20:09:46.440Z,81.13
2023-04-14T20:12:13.649Z,82.61
2023-04-14T20:14:40.383Z,83.39
2023-04-14T20:17:07.338Z,85.43
2023-04-14T20:19:33.919Z,86.07
2023-04-14T20:22:00.933Z,87.33
2023-04-14T20:24:27.731Z,87.77
2023-04-14T20:26:55.416Z,88.37
2023-04-14T20:29:23.373Z,89.44
2023-04-14T20:31:51.341Z,90.60
2023-04-14T20:34:18.125Z,91.55
2023-04-14T20:36:56.117Z,92.23
2023-04-14T20:42:05.580Z,94.12
2023-04-14T20:44:32.648Z,95.50
2023-04-14T20:46:59.454Z,96.12
2023-04-14T20:49:26.250Z,96.42
2023-04-14T20:51:53.052Z,97.37
2023-04-14T20:54:21.230Z,98.24
2023-04-14T20:56:47.969Z,98.68
2023-04-14T20:59:18.090Z,99.07
2023-04-14T21:01:46.507Z,100.00
2023-04-14T21:04:13.475Z,100.00
2023-04-14T21:06:40.175Z,100.00
2023-04-14T21:09:07.264Z,100.00
2023-04-14T21:11:33.830Z,100.00
2023-04-14T21:15:40.366Z,100.00
2023-04-14T21:16:46.997Z,100.00
2023-04-14T21:19:13.578Z,100.00
2023-04-14T21:21:40.108Z,100.00
2023-04-14T21:24:06.846Z,100.00
2023-04-14T21:26:33.626Z,100.00
2023-04-14T21:29:00.398Z,100.00
2023-04-14T21:31:27.394Z,100.00
2023-04-14T21:33:54.056Z,100.00
2023-04-14T21:36:20.772Z,100.00
2023-04-14T21:38:47.946Z,100.00
2023-04-14T21:41:16.482Z,100.00
2023-04-14T21:43:43.350Z,100.00
2023-04-14T21:46:10.015Z,100.00
2023-04-14T21:48:37.048Z,100.00
2023-04-14T21:51:03.921Z,100.00
2023-04-14T21:53:31.323Z,100.00
2023-04-14T21:56:04.395Z,100.00
2023-04-14T21:58:36.546Z,100.00
2023-04-14T22:01:03.345Z,100.00
2023-04-14T22:03:30.318Z,100.00
2023-04-14T22:05:57.029Z,100.00
2023-04-14T22:08:24.030Z,100.00
2023-04-14T22:10:52.216Z,100.00
2023-04-14T22:13:19.039Z,100.00
2023-04-14T22:15:45.671Z,100.00
2023-04-14T22:18:12.292Z,100.00
2023-04-14T22:20:39.676Z,100.00
2023-04-14T22:23:06.657Z,100.00
2023-04-14T22:25:34.969Z,100.00
2023-04-14T22:28:01.662Z,100.00
2023-04-14T22:30:28.431Z,100.00
2023-04-14T22:32:56.027Z,100.00
2023-04-14T22:35:23.071Z,100.00
2023-04-14T22:37:51.028Z,100.00
2023-04-14T22:40:17.725Z,100.00
2023-04-14T22:42:44.392Z,100.00
2023-04-14T22:45:11.155Z,100.00
2023-04-14T22:47:37.914Z,100.00
2023-04-14T22:50:04.930Z,100.00
2023-04-14T22:52:31.707Z,100.00
2023-04-14T22:54:58.452Z,100.00
2023-04-14T22:57:26.503Z,100.00
2023-04-14T22:59:53.433Z,100.00
2023-04-14T23:02:20.179Z,100.00
2023-04-14T23:04:47.106Z,100.00
2023-04-14T23:07:13.768Z,100.00
2023-04-14T23:09:40.333Z,100.00
2023-04-14T23:12:07.140Z,100.00
2023-04-14T23:14:33.774Z,100.00
2023-04-14T23:17:00.689Z,100.00
2023-04-14T23:19:27.366Z,100.00
2023-04-14T23:21:54.051Z,100.00
2023-04-14T23:24:22.291Z,100.00
2023-04-14T23:26:48.860Z,100.00
2023-04-14T23:29:15.512Z,100.00
2023-04-14T23:31:42.116Z,100.00
2023-04-14T23:34:10.765Z,100.00
2023-04-14T23:36:37.699Z,100.00
2023-04-14T23:39:04.656Z,100.00
2023-04-14T23:41:31.315Z,100.00
2023-04-14T23:43:57.925Z,100.00
2023-04-14T23:46:24.729Z,100.00
2023-04-14T23:48:51.400Z,100.00
2023-04-14T23:51:20.372Z,100.00
2023-04-14T23:53:49.025Z,100.00
2023-04-14T23:56:16.357Z,100.00
2023-04-14T23:58:43.218Z,100.00
